createdAt,value
2017-10-05T00:00:52.292Z,44.70
2017-10-05T00:03:18.752Z,44.90
2017-10-05T00:05:45.202Z,45.20
2017-10-05T00:08:11.730Z,45.20
2017-10-05T00:10:38.224Z,45.70
2017-10-05T00:13:05.400Z,44.50
2017-10-05T00:15:31.867Z,44.50
2017-10-05T00:17:58.311Z,44.90
2017-10-05T00:20:24.800Z,45.40
2017-10-05T00:22:51.289Z,46.40
2017-10-05T00:25:17.796Z,47.20
2017-10-05T00:27:44.214Z,46.10
2017-10-05T00:30:10.672Z,45.20
2017-10-05T00:32:37.168Z,46.40
2017-10-05T00:35:03.705Z,55.90
2017-10-05T00:37:30.161Z,46.80
2017-10-05T00:39:56.616Z,46.70
2017-10-05T00:42:23.076Z,46.90
2017-10-05T00:44:50.276Z,47.00
2017-10-05T00:47:16.705Z,46.90
2017-10-05T00:49:43.249Z,47.50
2017-10-05T00:52:09.735Z,47.00
2017-10-05T00:54:36.282Z,45.50
2017-10-05T00:57:02.810Z,44.70
2017-10-05T00:59:29.276Z,44.30
2017-10-05T01:01:55.785Z,45.10
2017-10-05T01:04:22.207Z,44.10
2017-10-05T01:06:49.426Z,44.60
2017-10-05T01:09:15.906Z,44.60
2017-10-05T01:11:42.364Z,44.30
2017-10-05T01:14:08.924Z,44.20
2017-10-05T01:16:35.413Z,42.70
2017-10-05T01:19:01.897Z,42.90
2017-10-05T01:21:29.224Z,42.30
2017-10-05T01:23:55.713Z,42.30
2017-10-05T01:26:22.928Z,42.90
2017-10-05T01:28:50.164Z,42.90
2017-10-05T01:31:16.608Z,42.90
2017-10-05T01:33:43.160Z,43.20
2017-10-05T01:36:10.385Z,42.40
2017-10-05T01:38:36.927Z,42.30
2017-10-05T01:41:03.426Z,42.50
2017-10-05T01:43:29.885Z,42.70
2017-10-05T01:45:56.406Z,42.60
2017-10-05T01:48:23.685Z,42.40
2017-10-05T01:50:50.186Z,57.70
2017-10-05T01:53:16.620Z,78.20
2017-10-05T01:55:43.193Z,72.00
2017-10-05T01:58:09.618Z,76.30
2017-10-05T02:00:36.098Z,77.70
2017-10-05T02:03:02.556Z,78.60
2017-10-05T02:05:29.198Z,73.00
2017-10-05T02:07:55.651Z,79.50
2017-10-05T02:10:22.132Z,73.90
2017-10-05T02:12:49.334Z,43.90
2017-10-05T02:15:15.791Z,69.10
2017-10-05T02:17:43.057Z,44.00
2017-10-05T02:20:09.472Z,85.00
2017-10-05T02:22:36.680Z,44.40
2017-10-05T02:25:03.108Z,64.70
2017-10-05T02:27:29.557Z,81.80
2017-10-05T02:29:56.004Z,90.20
2017-10-05T02:32:22.800Z,47.60
2017-10-05T02:34:50.438Z,45.10
2017-10-05T02:37:17.249Z,44.30
2017-10-05T02:39:44.065Z,44.10
2017-10-05T02:42:10.925Z,44.40
2017-10-05T02:44:37.750Z,44.40
2017-10-05T02:47:04.246Z,82.90
2017-10-05T02:49:31.464Z,45.50
2017-10-05T02:51:57.917Z,45.50
2017-10-05T02:54:24.335Z,45.50
2017-10-05T02:56:50.789Z,45.20
2017-10-05T02:59:17.988Z,45.80
2017-10-05T03:01:44.425Z,45.80
2017-10-05T03:04:10.930Z,46.00
2017-10-05T03:06:38.132Z,46.50
2017-10-05T03:09:05.334Z,46.40
2017-10-05T03:11:31.781Z,46.40
2017-10-05T03:13:58.258Z,46.60
2017-10-05T03:16:24.741Z,46.60
2017-10-05T03:18:51.217Z,47.00
2017-10-05T03:21:17.661Z,48.30
2017-10-05T03:23:44.860Z,51.60
2017-10-05T03:26:11.321Z,51.60
2017-10-05T03:28:37.757Z,52.50
2017-10-05T03:31:04.201Z,53.00
2017-10-05T03:33:30.766Z,52.30
2017-10-05T03:35:57.216Z,52.50
2017-10-05T03:38:23.644Z,53.10
2017-10-05T03:40:50.177Z,89.10
2017-10-05T03:43:16.723Z,94.40
2017-10-05T03:45:43.194Z,83.10
2017-10-05T03:48:10.418Z,57.30
2017-10-05T03:50:36.919Z,82.30
2017-10-05T03:53:04.140Z,57.50
2017-10-05T03:55:31.374Z,57.90
2017-10-05T03:57:58.578Z,58.60
2017-10-05T04:00:25.797Z,58.30
2017-10-05T04:02:53.073Z,58.10
2017-10-05T04:05:20.276Z,57.70
2017-10-05T04:07:47.485Z,57.30
2017-10-05T04:10:14.703Z,56.70
2017-10-05T04:12:42.654Z,56.10
2017-10-05T04:15:09.861Z,54.40
2017-10-05T04:17:37.117Z,53.30
2017-10-05T04:20:04.306Z,53.10
2017-10-05T04:22:31.476Z,52.80
2017-10-05T04:24:58.707Z,52.00
2017-10-05T04:27:25.910Z,50.80
2017-10-05T04:29:53.089Z,50.50
2017-10-05T04:32:20.366Z,51.00
2017-10-05T04:34:47.562Z,51.60
2017-10-05T04:37:14.913Z,51.90
2017-10-05T04:39:42.109Z,52.30
2017-10-05T04:42:09.274Z,52.00
2017-10-05T04:44:36.501Z,51.70
2017-10-05T04:47:03.798Z,51.30
2017-10-05T04:49:30.945Z,51.40
2017-10-05T04:51:58.909Z,52.40
2017-10-05T04:54:26.932Z,52.70
2017-10-05T04:56:54.174Z,52.60
2017-10-05T04:59:21.409Z,52.90
2017-10-05T05:01:48.648Z,53.60
2017-10-05T05:04:16.549Z,54.30
2017-10-05T05:06:43.741Z,54.00
2017-10-05T05:09:10.957Z,54.70
2017-10-05T05:11:38.123Z,54.30
2017-10-05T05:16:34.284Z,55.00
2017-10-05T05:19:02.267Z,55.70
2017-10-05T05:21:29.442Z,55.00
2017-10-05T05:23:56.708Z,55.30
2017-10-05T05:26:23.927Z,55.20
2017-10-05T05:28:51.116Z,55.40
2017-10-05T05:31:18.313Z,55.50
2017-10-05T05:33:45.541Z,55.40
2017-10-05T05:36:12.746Z,55.50
2017-10-05T05:38:39.934Z,55.40
2017-10-05T05:41:07.174Z,55.30
2017-10-05T05:43:34.408Z,55.30
2017-10-05T05:46:01.670Z,55.30
2017-10-05T05:48:28.901Z,55.40
2017-10-05T05:50:56.113Z,55.70
2017-10-05T05:53:23.329Z,55.80
2017-10-05T05:55:50.538Z,55.80
2017-10-05T05:58:18.577Z,56.40
2017-10-05T06:03:16.154Z,54.90
2017-10-05T06:05:43.370Z,54.80
2017-10-05T06:08:10.622Z,54.90
2017-10-05T06:10:37.860Z,54.10
2017-10-05T06:13:05.082Z,53.80
2017-10-05T06:15:33.028Z,54.10
2017-10-05T06:18:00.263Z,53.30
2017-10-05T06:22:55.798Z,52.80
2017-10-05T06:27:53.591Z,51.80
2017-10-05T06:32:48.980Z,49.00
2017-10-05T06:37:44.310Z,48.60
2017-10-05T06:42:39.765Z,47.30
2017-10-05T06:45:06.968Z,46.20
2017-10-05T06:50:02.457Z,45.50
2017-10-05T06:52:30.373Z,45.80
2017-10-05T06:54:57.553Z,43.80
2017-10-05T06:57:24.745Z,43.90
2017-10-05T06:59:51.962Z,44.00
2017-10-05T07:07:19.021Z,42.80
2017-10-05T07:09:46.199Z,42.70
2017-10-05T07:14:41.507Z,40.70
2017-10-05T07:17:09.570Z,41.20
2017-10-05T07:19:36.776Z,40.60
2017-10-05T07:22:04.746Z,39.60
2017-10-05T07:27:00.171Z,38.10
2017-10-05T07:31:56.498Z,37.70
2017-10-05T07:39:21.178Z,36.70
2017-10-05T07:46:44.523Z,34.80
2017-10-05T07:51:41.961Z,34.10
2017-10-05T08:16:23.327Z,30.70
2017-10-05T08:33:39.490Z,40.00
2017-10-05T08:36:05.958Z,30.40
2017-10-05T08:38:33.176Z,30.00
2017-10-05T08:40:59.605Z,30.00
2017-10-05T08:43:26.051Z,29.40
2017-10-05T08:45:52.516Z,29.70
2017-10-05T08:48:19.145Z,29.30
2017-10-05T08:50:46.337Z,29.30
2017-10-05T08:53:12.801Z,29.40
2017-10-05T08:55:39.251Z,29.70
2017-10-05T08:58:05.734Z,29.30
2017-10-05T09:00:32.253Z,29.70
2017-10-05T09:02:58.742Z,30.00
2017-10-05T09:05:25.197Z,29.90
2017-10-05T09:07:51.671Z,29.30
2017-10-05T09:10:18.113Z,30.10
2017-10-05T09:12:44.593Z,29.40
2017-10-05T09:15:11.058Z,29.50
2017-10-05T09:17:37.480Z,29.90
2017-10-05T09:20:03.989Z,30.10
2017-10-05T09:22:30.484Z,30.20
2017-10-05T09:24:56.932Z,30.50
2017-10-05T09:27:24.105Z,29.50
2017-10-05T09:29:50.583Z,29.40
2017-10-05T09:32:17.013Z,26.60
2017-10-05T09:34:43.490Z,25.10
2017-10-05T09:37:09.967Z,24.80
2017-10-05T09:39:37.165Z,24.90
2017-10-05T09:42:03.657Z,24.90
2017-10-05T09:44:30.290Z,25.00
2017-10-05T09:46:56.807Z,25.50
2017-10-05T09:49:23.990Z,25.00
2017-10-05T09:51:50.453Z,25.00
2017-10-05T09:54:16.901Z,25.00
2017-10-05T09:56:43.408Z,23.50
2017-10-05T09:59:09.950Z,23.00
2017-10-05T10:01:36.408Z,23.70
2017-10-05T10:04:02.838Z,23.70
2017-10-05T10:06:29.281Z,22.80
2017-10-05T10:08:55.722Z,23.30
2017-10-05T10:11:22.185Z,23.30
2017-10-05T10:13:48.624Z,22.20
2017-10-05T10:16:15.105Z,23.20
2017-10-05T10:18:42.362Z,21.60
2017-10-05T10:21:09.576Z,21.20
2017-10-05T10:23:36.054Z,21.20
2017-10-05T10:26:02.554Z,21.00
2017-10-05T10:28:29.010Z,22.50
2017-10-05T10:30:55.593Z,23.10
2017-10-05T10:33:22.077Z,21.50
2017-10-05T10:35:48.520Z,22.10
2017-10-05T10:38:14.981Z,21.50
2017-10-05T10:40:41.429Z,20.70
2017-10-05T10:43:07.957Z,21.20
2017-10-05T10:45:34.393Z,21.20
2017-10-05T10:48:00.821Z,22.60
2017-10-05T10:50:27.289Z,22.30
2017-10-05T10:52:53.713Z,22.60
2017-10-05T10:55:20.189Z,22.10
2017-10-05T10:57:46.640Z,21.90
2017-10-05T11:00:13.841Z,21.60
2017-10-05T11:02:40.319Z,21.60
2017-10-05T11:05:07.566Z,22.30
2017-10-05T11:07:34.005Z,22.20
2017-10-05T11:10:00.526Z,23.50
2017-10-05T11:12:27.084Z,23.30
2017-10-05T11:14:54.281Z,23.30
2017-10-05T11:17:20.701Z,23.20
2017-10-05T11:19:47.174Z,23.80
2017-10-05T11:22:13.699Z,22.40
2017-10-05T11:24:40.141Z,23.40
2017-10-05T11:27:06.656Z,22.90
2017-10-05T11:29:33.083Z,23.90
2017-10-05T11:31:59.482Z,24.50
2017-10-05T11:34:25.953Z,24.50
2017-10-05T11:36:52.479Z,23.70
2017-10-05T11:39:18.889Z,24.40
2017-10-05T11:41:45.366Z,24.90
2017-10-05T11:44:12.574Z,24.50
2017-10-05T11:46:39.049Z,24.50
2017-10-05T11:49:05.517Z,24.50
2017-10-05T11:51:31.984Z,24.60
2017-10-05T11:53:58.409Z,24.90
2017-10-05T11:56:24.967Z,24.20
2017-10-05T11:58:51.401Z,25.00
2017-10-05T12:01:17.921Z,24.70
2017-10-05T12:03:44.321Z,24.80
2017-10-05T12:06:10.743Z,24.90
2017-10-05T12:08:37.956Z,25.00
2017-10-05T12:11:04.410Z,25.00
2017-10-05T12:13:31.614Z,25.70
2017-10-05T12:15:58.060Z,25.20
2017-10-05T12:18:24.481Z,26.20
2017-10-05T12:20:50.905Z,25.80
2017-10-05T12:23:17.355Z,25.30
2017-10-05T12:25:43.813Z,25.70
2017-10-05T12:28:11.109Z,25.30
2017-10-05T12:30:37.557Z,25.30
2017-10-05T12:33:04.005Z,26.10
2017-10-05T12:35:30.446Z,26.10
2017-10-05T12:37:57.618Z,27.10
2017-10-05T12:40:24.090Z,26.50
2017-10-05T12:42:50.526Z,26.20
2017-10-05T12:45:17.785Z,27.30
2017-10-05T12:47:44.214Z,27.30
2017-10-05T12:50:10.708Z,27.40
2017-10-05T12:52:37.157Z,26.70
2017-10-05T12:55:03.626Z,26.60
2017-10-05T12:57:30.085Z,26.70
2017-10-05T12:59:56.517Z,27.40
2017-10-05T13:02:22.993Z,27.50
2017-10-05T13:04:49.504Z,27.50
2017-10-05T13:07:15.921Z,27.90
2017-10-05T13:09:42.372Z,27.70
2017-10-05T13:12:08.882Z,28.40
2017-10-05T13:14:35.367Z,28.50
2017-10-05T13:17:01.894Z,28.70
2017-10-05T13:19:29.053Z,28.90
2017-10-05T13:21:55.506Z,28.80
2017-10-05T13:24:22.018Z,28.60
2017-10-05T13:26:49.176Z,28.90
2017-10-05T13:29:16.386Z,28.70
2017-10-05T13:31:42.866Z,28.60
2017-10-05T13:34:09.342Z,28.70
2017-10-05T13:36:35.872Z,28.90
2017-10-05T13:39:02.378Z,28.70
2017-10-05T13:41:28.893Z,29.10
2017-10-05T13:43:56.057Z,30.10
2017-10-05T13:46:22.534Z,30.00
2017-10-05T13:48:49.022Z,31.30
2017-10-05T13:51:15.480Z,31.40
2017-10-05T13:53:42.748Z,31.70
2017-10-05T13:56:09.237Z,31.70
2017-10-05T13:58:35.710Z,31.40
2017-10-05T14:01:02.182Z,31.10
2017-10-05T14:03:28.660Z,31.60
2017-10-05T14:05:55.162Z,31.50
2017-10-05T14:08:21.738Z,31.80
2017-10-05T14:10:48.180Z,31.80
2017-10-05T14:13:14.602Z,32.30
2017-10-05T14:15:41.066Z,32.40
2017-10-05T14:18:07.490Z,32.40
2017-10-05T14:20:33.936Z,32.80
2017-10-05T14:23:00.397Z,33.40
2017-10-05T14:25:26.870Z,34.60
2017-10-05T14:27:53.357Z,33.90
2017-10-05T14:30:20.574Z,34.20
2017-10-05T14:32:47.025Z,34.20
2017-10-05T14:35:13.442Z,36.20
2017-10-05T14:37:39.905Z,37.70
2017-10-05T14:40:06.386Z,35.60
2017-10-05T14:42:33.645Z,36.40
2017-10-05T14:45:00.113Z,36.30
2017-10-05T14:47:26.563Z,37.00
2017-10-05T14:49:53.789Z,39.10
2017-10-05T14:52:20.262Z,39.20
2017-10-05T14:54:47.444Z,38.70
2017-10-05T14:57:13.913Z,38.70
2017-10-05T14:59:41.113Z,37.20
2017-10-05T15:02:07.581Z,37.20
2017-10-05T15:04:34.035Z,37.20
2017-10-05T15:07:00.460Z,37.20
2017-10-05T15:09:26.925Z,37.00
2017-10-05T15:11:53.408Z,39.70
2017-10-05T15:14:19.828Z,41.50
2017-10-05T15:16:46.365Z,42.10
2017-10-05T15:19:12.816Z,43.70
2017-10-05T15:21:39.270Z,44.10
2017-10-05T15:24:05.728Z,45.10
2017-10-05T15:26:33.003Z,46.40
2017-10-05T15:28:59.462Z,46.40
2017-10-05T15:31:25.917Z,46.90
2017-10-05T15:33:53.167Z,49.90
2017-10-05T15:36:20.380Z,48.90
2017-10-05T15:38:46.909Z,49.00
2017-10-05T15:41:13.425Z,49.20
2017-10-05T15:43:39.884Z,49.40
2017-10-05T15:46:06.357Z,49.10
2017-10-05T15:48:33.619Z,49.10
2017-10-05T15:51:00.098Z,49.10
2017-10-05T15:53:27.361Z,49.40
2017-10-05T15:55:53.842Z,49.00
2017-10-05T15:58:21.109Z,49.70
2017-10-05T16:00:48.292Z,49.70
2017-10-05T16:03:14.778Z,49.60
2017-10-05T16:05:41.222Z,49.60
2017-10-05T16:08:07.697Z,49.70
2017-10-05T16:10:34.204Z,49.80
2017-10-05T16:13:00.722Z,50.20
2017-10-05T16:15:27.925Z,51.00
2017-10-05T16:17:54.412Z,51.00
2017-10-05T16:20:21.607Z,52.20
2017-10-05T16:22:48.085Z,52.20
2017-10-05T16:25:15.294Z,53.60
2017-10-05T16:27:41.865Z,53.50
2017-10-05T16:30:09.121Z,53.80
2017-10-05T16:32:35.655Z,53.80
2017-10-05T16:35:02.270Z,54.00
2017-10-05T16:37:28.709Z,54.80
2017-10-05T16:39:55.167Z,56.80
2017-10-05T16:42:21.719Z,58.20
2017-10-05T16:44:48.481Z,59.80
2017-10-05T16:47:15.189Z,65.70
2017-10-05T16:49:42.049Z,68.60
2017-10-05T16:52:08.713Z,70.00
2017-10-05T16:54:35.479Z,71.80
2017-10-05T16:57:02.575Z,73.10
2017-10-05T16:59:29.029Z,74.10
2017-10-05T17:01:55.519Z,74.80
2017-10-05T17:04:22.002Z,75.60
2017-10-05T17:06:48.472Z,75.10
2017-10-05T17:09:15.677Z,76.80
2017-10-05T17:11:42.228Z,76.60
2017-10-05T17:14:08.683Z,75.90
2017-10-05T17:16:36.037Z,77.00
2017-10-05T17:19:03.251Z,77.50
2017-10-05T17:21:29.682Z,77.50
2017-10-05T17:23:56.192Z,78.80
2017-10-05T17:26:22.711Z,78.70
2017-10-05T17:28:50.075Z,79.20
2017-10-05T17:31:16.656Z,79.00
2017-10-05T17:33:43.219Z,80.50
2017-10-05T17:36:09.698Z,79.00
2017-10-05T17:38:36.175Z,79.20
2017-10-05T17:41:02.755Z,78.90
2017-10-05T17:43:29.294Z,79.90
2017-10-05T17:45:55.999Z,79.50
2017-10-05T17:48:22.641Z,80.60
2017-10-05T17:50:49.904Z,80.80
2017-10-05T17:53:16.522Z,80.70
2017-10-05T17:55:43.809Z,81.90
2017-10-05T17:58:10.239Z,81.80
2017-10-05T18:00:36.733Z,82.10
2017-10-05T18:03:04.025Z,82.40
2017-10-05T18:05:30.498Z,82.40
2017-10-05T18:07:56.933Z,82.20
2017-10-05T18:10:23.390Z,82.50
2017-10-05T18:12:49.879Z,83.10
2017-10-05T18:15:16.332Z,82.30
2017-10-05T18:17:42.765Z,82.20
2017-10-05T18:20:09.215Z,82.60
2017-10-05T18:22:35.657Z,82.90
2017-10-05T18:25:02.130Z,82.60
2017-10-05T18:27:28.595Z,83.40
2017-10-05T18:29:55.873Z,82.20
2017-10-05T18:32:22.396Z,82.20
2017-10-05T18:34:49.250Z,82.70
2017-10-05T18:37:16.465Z,84.40
2017-10-05T18:39:42.938Z,84.30
2017-10-05T18:42:09.482Z,84.40
2017-10-05T18:44:35.963Z,84.00
2017-10-05T18:47:02.419Z,84.30
2017-10-05T18:49:28.883Z,84.60
2017-10-05T18:51:55.312Z,83.90
2017-10-05T18:54:22.517Z,84.50
2017-10-05T18:56:49.054Z,84.50
2017-10-05T18:59:15.534Z,84.50
2017-10-05T19:01:41.962Z,84.70
2017-10-05T19:04:08.417Z,85.10
2017-10-05T19:06:35.634Z,85.70
2017-10-05T19:09:02.190Z,85.70
2017-10-05T19:11:28.679Z,85.80
2017-10-05T19:13:55.252Z,86.60
2017-10-05T19:16:21.719Z,86.80
2017-10-05T19:18:48.173Z,86.40
2017-10-05T19:21:14.642Z,86.20
2017-10-05T19:23:41.566Z,86.20
2017-10-05T19:26:08.043Z,85.80
2017-10-05T19:28:35.270Z,87.00
2017-10-05T19:31:01.742Z,86.90
2017-10-05T19:33:28.234Z,87.30
2017-10-05T19:35:54.697Z,87.60
2017-10-05T19:38:21.891Z,87.60
2017-10-05T19:40:48.348Z,87.70
2017-10-05T19:43:14.807Z,88.90
2017-10-05T19:45:41.988Z,88.00
2017-10-05T19:48:08.505Z,88.00
2017-10-05T19:50:35.782Z,85.60
2017-10-05T19:53:02.302Z,85.50
2017-10-05T19:55:28.765Z,85.00
2017-10-05T19:57:55.279Z,83.30
2017-10-05T20:00:21.771Z,78.90
2017-10-05T20:02:48.961Z,80.10
2017-10-05T20:05:15.430Z,80.10
2017-10-05T20:07:41.925Z,76.90
2017-10-05T20:10:08.383Z,77.20
2017-10-05T20:12:34.885Z,77.30
2017-10-05T20:15:17.246Z,78.20
2017-10-05T20:17:49.782Z,78.50
2017-10-05T20:20:20.165Z,77.20
2017-10-05T20:22:49.189Z,77.10
2017-10-05T20:25:35.606Z,77.10
2017-10-05T20:28:07.970Z,76.30
2017-10-05T20:30:37.431Z,76.00
2017-10-05T20:33:13.822Z,75.90
2017-10-05T20:35:41.030Z,76.50
2017-10-05T20:38:07.493Z,76.40
2017-10-05T20:40:34.031Z,77.50
2017-10-05T20:43:01.237Z,77.20
2017-10-05T20:45:27.651Z,77.10
2017-10-05T20:47:54.127Z,76.80
2017-10-05T20:50:20.608Z,77.30
2017-10-05T20:52:47.079Z,76.90
2017-10-05T20:55:15.067Z,77.30
2017-10-05T20:57:42.286Z,77.80
2017-10-05T21:00:08.746Z,77.70
2017-10-05T21:02:36.100Z,78.30
2017-10-05T21:05:02.532Z,78.20
2017-10-05T21:07:28.950Z,78.00
2017-10-05T21:09:55.405Z,78.10
2017-10-05T21:12:21.869Z,79.00
2017-10-05T21:14:48.339Z,78.00
2017-10-05T21:17:14.813Z,78.20
2017-10-05T21:19:41.989Z,77.30
2017-10-05T21:22:08.469Z,77.20
2017-10-05T21:24:34.904Z,77.30
2017-10-05T21:27:01.341Z,78.30
2017-10-05T21:29:27.816Z,78.00
2017-10-05T21:31:54.248Z,78.20
2017-10-05T21:34:21.427Z,78.30
2017-10-05T21:36:47.930Z,78.30
2017-10-05T21:39:15.101Z,79.30
2017-10-05T21:41:41.506Z,79.20
2017-10-05T21:44:08.009Z,79.30
2017-10-05T21:46:34.439Z,78.30
2017-10-05T21:49:00.907Z,78.30
2017-10-05T21:51:28.090Z,80.30
2017-10-05T21:53:54.514Z,80.30
2017-10-05T21:56:20.959Z,80.30
2017-10-05T21:58:47.438Z,80.10
2017-10-05T22:01:13.935Z,79.30
2017-10-05T22:03:40.430Z,79.90
2017-10-05T22:06:06.891Z,79.60
2017-10-05T22:08:33.372Z,80.10
2017-10-05T22:10:59.858Z,80.50
2017-10-05T22:13:26.350Z,81.00
2017-10-05T22:15:53.561Z,81.30
2017-10-05T22:18:20.057Z,81.20
2017-10-05T22:20:46.623Z,81.10
2017-10-05T22:23:13.100Z,81.20
2017-10-05T22:25:39.557Z,81.60
2017-10-05T22:28:06.073Z,82.10
2017-10-05T22:30:32.562Z,82.10
2017-10-05T22:32:59.025Z,82.00
2017-10-05T22:35:26.274Z,82.10
2017-10-05T22:37:52.772Z,82.10
2017-10-05T22:40:19.261Z,81.80
2017-10-05T22:42:46.474Z,82.00
2017-10-05T22:45:12.959Z,82.00
2017-10-05T22:47:39.452Z,82.50
2017-10-05T22:50:05.903Z,82.30
2017-10-05T22:52:32.380Z,81.90
2017-10-05T22:54:58.847Z,81.70
2017-10-05T22:57:25.292Z,82.30
2017-10-05T22:59:51.775Z,81.50
2017-10-05T23:02:18.232Z,81.00
2017-10-05T23:04:45.103Z,80.20
2017-10-05T23:07:11.552Z,83.90
2017-10-05T23:09:38.795Z,80.90
2017-10-05T23:12:05.291Z,80.80
2017-10-05T23:14:31.789Z,81.30
2017-10-05T23:16:58.276Z,81.50
2017-10-05T23:19:25.153Z,82.10
2017-10-05T23:21:52.005Z,82.10
2017-10-05T23:24:18.839Z,82.10
2017-10-05T23:26:45.351Z,90.90
2017-10-05T23:29:12.570Z,82.80
2017-10-05T23:31:39.079Z,82.80
2017-10-05T23:34:05.969Z,81.90
2017-10-05T23:36:32.820Z,81.70
2017-10-05T23:38:59.690Z,81.60
2017-10-05T23:41:27.291Z,81.20
2017-10-05T23:43:54.899Z,81.20
2017-10-05T23:46:21.794Z,80.70
2017-10-05T23:48:49.746Z,80.80
2017-10-05T23:51:16.930Z,80.30
2017-10-05T23:53:44.155Z,79.80
2017-10-05T23:56:11.344Z,79.50
2017-10-05T23:58:38.610Z,79.90
